sensor_id;sensor_type;location;lat;lon;timestamp;pressure;altitude;pressure_sealevel;temperature;humidity
49451;BME280;35336;48.400;10.886;2023-03-03T00:00:07;96371.94;;;0.12;87.49
49451;BME280;35336;48.400;10.886;2023-03-03T00:00:23;96374.41;;;0.14;87.45
49451;BME280;35336;48.400;10.886;2023-03-03T00:00:38;96363.06;;;0.04;87.25
49451;BME280;35336;48.400;10.886;2023-03-03T00:00:53;96374.41;;;0.14;87.47
49451;BME280;35336;48.400;10.886;2023-03-03T00:01:08;96338.72;;;-0.08;87.31
49451;BME280;35336;48.400;10.886;2023-03-03T00:01:24;96373.72;;;0.12;87.07
49451;BME280;35336;48.400;10.886;2023-03-03T00:01:39;96371.09;;;0.12;86.80
49451;BME280;35336;48.400;10.886;2023-03-03T00:01:55;96373.72;;;0.12;86.90
49451;BME280;35336;48.400;10.886;2023-03-03T00:02:10;96370.50;;;0.08;86.88
49451;BME280;35336;48.400;10.886;2023-03-03T00:02:25;96372.88;;;0.11;86.97
49451;BME280;35336;48.400;10.886;2023-03-03T00:02:40;96338.97;;;-0.11;86.97
49451;BME280;35336;48.400;10.886;2023-03-03T00:03:03;96380.63;;;0.13;86.90
49451;BME280;35336;48.400;10.886;2023-03-03T00:03:22;96375.13;;;0.16;86.90
49451;BME280;35336;48.400;10.886;2023-03-03T00:03:37;96361.00;;;0.07;86.92
49451;BME280;35336;48.400;10.886;2023-03-03T00:03:53;96366.81;;;0.11;86.96
49451;BME280;35336;48.400;10.886;2023-03-03T00:04:08;96376.09;;;0.15;86.94
49451;BME280;35336;48.400;10.886;2023-03-03T00:04:24;96343.81;;;-0.07;87.07
49451;BME280;35336;48.400;10.886;2023-03-03T00:04:39;96374.41;;;0.14;87.19
49451;BME280;35336;48.400;10.886;2023-03-03T00:04:54;96359.75;;;0.02;87.11
49451;BME280;35336;48.400;10.886;2023-03-03T00:05:10;96368.59;;;0.10;87.18
49451;BME280;35336;48.400;10.886;2023-03-03T00:05:25;96331.50;;;-0.16;87.18
49451;BME280;35336;48.400;10.886;2023-03-03T00:05:40;96349.22;;;-0.08;87.09
49451;BME280;35336;48.400;10.886;2023-03-03T00:05:56;96345.88;;;-0.10;87.12
49451;BME280;35336;48.400;10.886;2023-03-03T00:06:13;96369.84;;;0.06;87.24
49451;BME280;35336;48.400;10.886;2023-03-03T00:06:29;96373.56;;;0.04;87.33
49451;BME280;35336;48.400;10.886;2023-03-03T00:06:44;96369.28;;;0.03;87.31
49451;BME280;35336;48.400;10.886;2023-03-03T00:07:00;96370.47;;;-0.02;87.48
49451;BME280;35336;48.400;10.886;2023-03-03T00:07:15;96380.72;;;0.02;87.61
49451;BME280;35336;48.400;10.886;2023-03-03T00:07:30;96362.16;;;-0.07;87.74
49451;BME280;35336;48.400;10.886;2023-03-03T00:07:46;96361.91;;;-0.04;87.73
49451;BME280;35336;48.400;10.886;2023-03-03T00:08:02;96374.63;;;0.01;87.88
49451;BME280;35336;48.400;10.886;2023-03-03T00:08:19;96369.66;;;-0.02;87.84
49451;BME280;35336;48.400;10.886;2023-03-03T00:08:34;96368.13;;;-0.05;87.95
49451;BME280;35336;48.400;10.886;2023-03-03T00:08:50;96374.75;;;-0.01;87.94
49451;BME280;35336;48.400;10.886;2023-03-03T00:09:05;96357.19;;;-0.10;88.25
49451;BME280;35336;48.400;10.886;2023-03-03T00:09:20;96342.63;;;-0.24;88.06
49451;BME280;35336;48.400;10.886;2023-03-03T00:09:36;96364.69;;;0.05;87.89
49451;BME280;35336;48.400;10.886;2023-03-03T00:09:51;96363.06;;;0.04;87.92
49451;BME280;35336;48.400;10.886;2023-03-03T00:10:07;96359.75;;;0.02;87.77
49451;BME280;35336;48.400;10.886;2023-03-03T00:10:22;96370.66;;;0.07;87.86
49451;BME280;35336;48.400;10.886;2023-03-03T00:10:38;96369.13;;;0.04;87.87
49451;BME280;35336;48.400;10.886;2023-03-03T00:10:54;96354.03;;;-0.04;87.63
49451;BME280;35336;48.400;10.886;2023-03-03T00:11:09;96376.84;;;0.06;87.95
49451;BME280;35336;48.400;10.886;2023-03-03T00:11:25;96366.38;;;0.06;87.80
49451;BME280;35336;48.400;10.886;2023-03-03T00:11:40;96365.69;;;0.04;87.73
49451;BME280;35336;48.400;10.886;2023-03-03T00:11:57;96348.09;;;-0.06;87.84
49451;BME280;35336;48.400;10.886;2023-03-03T00:12:24;96369.94;;;0.05;87.70
49451;BME280;35336;48.400;10.886;2023-03-03T00:12:48;96365.56;;;0.05;87.80
49451;BME280;35336;48.400;10.886;2023-03-03T00:13:10;96364.03;;;0.03;87.92
49451;BME280;35336;48.400;10.886;2023-03-03T00:13:28;96363.63;;;0.07;87.89
49451;BME280;35336;48.400;10.886;2023-03-03T00:13:47;96320.44;;;-0.20;87.63
49451;BME280;35336;48.400;10.886;2023-03-03T00:14:27;96363.50;;;0.09;88.04
49451;BME280;35336;48.400;10.886;2023-03-03T00:14:43;96352.81;;;0.01;87.52
49451;BME280;35336;48.400;10.886;2023-03-03T00:14:59;96369.31;;;0.12;87.57
49451;BME280;35336;48.400;10.886;2023-03-03T00:15:17;96367.50;;;0.13;87.56
49451;BME280;35336;48.400;10.886;2023-03-03T00:15:35;96365.84;;;0.12;87.48
49451;BME280;35336;48.400;10.886;2023-03-03T00:15:50;96375.38;;;0.13;87.15
49451;BME280;35336;48.400;10.886;2023-03-03T00:16:24;96379.66;;;0.14;87.25
49451;BME280;35336;48.400;10.886;2023-03-03T00:16:40;96360.44;;;0.04;87.19
49451;BME280;35336;48.400;10.886;2023-03-03T00:16:55;96350.78;;;0.04;87.25
49451;BME280;35336;48.400;10.886;2023-03-03T00:17:20;96357.69;;;0.05;87.14
49451;BME280;35336;48.400;10.886;2023-03-03T00:17:36;96369.44;;;0.11;87.05
49451;BME280;35336;48.400;10.886;2023-03-03T00:17:52;96353.66;;;0.01;87.14
49451;BME280;35336;48.400;10.886;2023-03-03T00:18:30;96367.50;;;0.13;87.15
49451;BME280;35336;48.400;10.886;2023-03-03T00:18:47;96355.19;;;0.04;87.03
49451;BME280;35336;48.400;10.886;2023-03-03T00:19:16;96376.59;;;0.09;87.18
49451;BME280;35336;48.400;10.886;2023-03-03T00:19:37;96364.59;;;0.06;87.43
49451;BME280;35336;48.400;10.886;2023-03-03T00:19:53;96362.34;;;0.02;87.55
49451;BME280;35336;48.400;10.886;2023-03-03T00:20:58;96368.59;;;0.10;87.65
49451;BME280;35336;48.400;10.886;2023-03-03T00:21:22;96349.63;;;-0.03;87.55
49451;BME280;35336;48.400;10.886;2023-03-03T00:21:44;96366.13;;;0.09;87.48
49451;BME280;35336;48.400;10.886;2023-03-03T00:22:00;96356.25;;;0.01;87.40
49451;BME280;35336;48.400;10.886;2023-03-03T00:22:26;96364.31;;;0.09;87.43
49451;BME280;35336;48.400;10.886;2023-03-03T00:22:42;96363.34;;;0.10;87.54
49451;BME280;35336;48.400;10.886;2023-03-03T00:23:13;96325.28;;;-0.15;87.59
49451;BME280;35336;48.400;10.886;2023-03-03T00:23:38;96324.91;;;-0.10;86.99
49451;BME280;35336;48.400;10.886;2023-03-03T00:24:10;96363.22;;;0.12;87.14
49451;BME280;35336;48.400;10.886;2023-03-03T00:24:36;96344.00;;;0.02;87.07
49451;BME280;35336;48.400;10.886;2023-03-03T00:24:52;96329.63;;;-0.04;87.17
49451;BME280;35336;48.400;10.886;2023-03-03T00:25:45;96363.94;;;0.14;87.14
49451;BME280;35336;48.400;10.886;2023-03-03T00:26:01;96356.34;;;0.11;87.13
49451;BME280;35336;48.400;10.886;2023-03-03T00:26:29;96356.06;;;0.14;87.41
49451;BME280;35336;48.400;10.886;2023-03-03T00:26:47;96353.72;;;0.11;87.26
49451;BME280;35336;48.400;10.886;2023-03-03T00:27:25;96362.97;;;0.15;87.45
49451;BME280;35336;48.400;10.886;2023-03-03T00:27:41;96345.38;;;0.06;87.39
49451;BME280;35336;48.400;10.886;2023-03-03T00:28:21;96361.16;;;0.15;87.27
49451;BME280;35336;48.400;10.886;2023-03-03T00:28:44;96331.03;;;0.00;87.30
49451;BME280;35336;48.400;10.886;2023-03-03T00:29:01;96362.00;;;0.16;87.23
49451;BME280;35336;48.400;10.886;2023-03-03T00:29:34;96361.06;;;0.17;87.17
49451;BME280;35336;48.400;10.886;2023-03-03T00:29:52;96344.56;;;0.05;87.02
49451;BME280;35336;48.400;10.886;2023-03-03T00:30:35;96351.53;;;0.16;87.18
49451;BME280;35336;48.400;10.886;2023-03-03T00:30:52;96344.44;;;0.07;86.96
49451;BME280;35336;48.400;10.886;2023-03-03T00:31:14;96356.44;;;0.09;86.81
49451;BME280;35336;48.400;10.886;2023-03-03T00:31:35;96352.72;;;0.12;87.16
49451;BME280;35336;48.400;10.886;2023-03-03T00:31:50;96326.44;;;-0.08;86.91
49451;BME280;35336;48.400;10.886;2023-03-03T00:32:43;96358.44;;;0.17;87.13
49451;BME280;35336;48.400;10.886;2023-03-03T00:32:59;96352.06;;;0.10;86.78
49451;BME280;35336;48.400;10.886;2023-03-03T00:33:49;96363.13;;;0.13;86.83
49451;BME280;35336;48.400;10.886;2023-03-03T00:34:33;96343.16;;;0.01;86.79
49451;BME280;35336;48.400;10.886;2023-03-03T00:34:49;96357.28;;;0.10;86.93
49451;BME280;35336;48.400;10.886;2023-03-03T00:35:32;96362.66;;;0.08;86.98
49451;BME280;35336;48.400;10.886;2023-03-03T00:35:48;96344.97;;;0.01;87.14
49451;BME280;35336;48.400;10.886;2023-03-03T00:36:36;96349.25;;;0.02;87.13
49451;BME280;35336;48.400;10.886;2023-03-03T00:36:56;96361.84;;;0.08;87.17
49451;BME280;35336;48.400;10.886;2023-03-03T00:37:28;96366.50;;;0.04;86.82
49451;BME280;35336;48.400;10.886;2023-03-03T00:37:44;96362.22;;;0.03;87.13
49451;BME280;35336;48.400;10.886;2023-03-03T00:38:01;96361.41;;;0.03;87.23
49451;BME280;35336;48.400;10.886;2023-03-03T00:38:17;96348.69;;;-0.02;87.42
49451;BME280;35336;48.400;10.886;2023-03-03T00:38:33;96358.84;;;-0.09;87.54
49451;BME280;35336;48.400;10.886;2023-03-03T00:38:49;96360.84;;;-0.01;87.53
49451;BME280;35336;48.400;10.886;2023-03-03T00:39:29;96360.25;;;-0.05;87.81
49451;BME280;35336;48.400;10.886;2023-03-03T00:39:45;96355.50;;;-0.11;87.80
49451;BME280;35336;48.400;10.886;2023-03-03T00:40:30;96357.19;;;-0.10;87.87
49451;BME280;35336;48.400;10.886;2023-03-03T00:40:47;96351.50;;;-0.15;87.44
49451;BME280;35336;48.400;10.886;2023-03-03T00:41:23;96348.44;;;-0.20;87.84
49451;BME280;35336;48.400;10.886;2023-03-03T00:41:39;96340.41;;;-0.28;87.88
49451;BME280;35336;48.400;10.886;2023-03-03T00:41:54;96370.19;;;-0.08;88.18
49451;BME280;35336;48.400;10.886;2023-03-03T00:42:14;96361.59;;;-0.10;88.02
49451;BME280;35336;48.400;10.886;2023-03-03T00:42:32;96362.69;;;-0.13;88.13
49451;BME280;35336;48.400;10.886;2023-03-03T00:42:52;96372.22;;;-0.12;88.04
49451;BME280;35336;48.400;10.886;2023-03-03T00:43:35;96374.00;;;-0.12;88.39
49451;BME280;35336;48.400;10.886;2023-03-03T00:43:51;96372.22;;;-0.12;88.58
49451;BME280;35336;48.400;10.886;2023-03-03T00:44:41;96368.75;;;-0.12;88.43
49451;BME280;35336;48.400;10.886;2023-03-03T00:44:57;96373.19;;;-0.13;88.61
49451;BME280;35336;48.400;10.886;2023-03-03T00:45:42;96379.25;;;-0.12;88.61
49451;BME280;35336;48.400;10.886;2023-03-03T00:45:58;96358.94;;;-0.20;88.62
49451;BME280;35336;48.400;10.886;2023-03-03T00:46:19;96376.47;;;-0.11;88.59
49451;BME280;35336;48.400;10.886;2023-03-03T00:46:35;96373.03;;;-0.11;88.74
49451;BME280;35336;48.400;10.886;2023-03-03T00:46:51;96364.16;;;-0.20;88.37
49451;BME280;35336;48.400;10.886;2023-03-03T00:47:29;96376.75;;;-0.14;88.58
49451;BME280;35336;48.400;10.886;2023-03-03T00:47:44;96372.31;;;-0.13;88.58
49451;BME280;35336;48.400;10.886;2023-03-03T00:48:50;96374.28;;;-0.15;88.55
49451;BME280;35336;48.400;10.886;2023-03-03T00:49:10;96341.16;;;-0.38;88.71
49451;BME280;35336;48.400;10.886;2023-03-03T00:49:33;96357.50;;;-0.24;88.57
49451;BME280;35336;48.400;10.886;2023-03-03T00:49:49;96375.09;;;-0.15;88.47
49451;BME280;35336;48.400;10.886;2023-03-03T00:50:31;96357.41;;;-0.23;88.79
49451;BME280;35336;48.400;10.886;2023-03-03T00:50:47;96355.03;;;-0.26;88.73
49451;BME280;35336;48.400;10.886;2023-03-03T00:51:32;96370.41;;;-0.11;88.85
49451;BME280;35336;48.400;10.886;2023-03-03T00:51:47;96372.91;;;-0.10;88.91
49451;BME280;35336;48.400;10.886;2023-03-03T00:52:11;96366.00;;;-0.11;88.89
49451;BME280;35336;48.400;10.886;2023-03-03T00:52:28;96369.59;;;-0.12;88.60
49451;BME280;35336;48.400;10.886;2023-03-03T00:53:13;96368.75;;;-0.12;88.68
49451;BME280;35336;48.400;10.886;2023-03-03T00:53:29;96361.41;;;-0.19;88.87
49451;BME280;35336;48.400;10.886;2023-03-03T00:53:44;96373.84;;;-0.11;88.98
49451;BME280;35336;48.400;10.886;2023-03-03T00:54:00;96365.56;;;-0.16;88.81
49451;BME280;35336;48.400;10.886;2023-03-03T00:54:15;96373.03;;;-0.11;88.81
49451;BME280;35336;48.400;10.886;2023-03-03T00:54:30;96375.66;;;-0.11;88.59
49451;BME280;35336;48.400;10.886;2023-03-03T00:54:46;96366.28;;;-0.14;88.79
49451;BME280;35336;48.400;10.886;2023-03-03T00:55:01;96367.94;;;-0.13;88.53
49451;BME280;35336;48.400;10.886;2023-03-03T00:55:17;96373.75;;;-0.09;88.42
49451;BME280;35336;48.400;10.886;2023-03-03T00:55:33;96362.50;;;-0.21;88.10
49451;BME280;35336;48.400;10.886;2023-03-03T00:55:50;96370.56;;;-0.13;88.22
49451;BME280;35336;48.400;10.886;2023-03-03T00:56:06;96357.25;;;-0.21;88.21
49451;BME280;35336;48.400;10.886;2023-03-03T00:56:22;96372.91;;;-0.10;88.22
49451;BME280;35336;48.400;10.886;2023-03-03T00:56:37;96370.28;;;-0.10;88.20
49451;BME280;35336;48.400;10.886;2023-03-03T00:56:53;96367.66;;;-0.10;88.26
49451;BME280;35336;48.400;10.886;2023-03-03T00:57:08;96357.69;;;-0.16;88.31
49451;BME280;35336;48.400;10.886;2023-03-03T00:57:24;96354.50;;;-0.20;88.25
49451;BME280;35336;48.400;10.886;2023-03-03T00:57:39;96367.66;;;-0.10;88.00
49451;BME280;35336;48.400;10.886;2023-03-03T00:57:54;96357.69;;;-0.16;88.14
49451;BME280;35336;48.400;10.886;2023-03-03T00:58:10;96344.53;;;-0.26;88.24
49451;BME280;35336;48.400;10.886;2023-03-03T00:58:25;96353.69;;;-0.20;88.37
49451;BME280;35336;48.400;10.886;2023-03-03T00:58:41;96360.59;;;-0.19;88.48
49451;BME280;35336;48.400;10.886;2023-03-03T00:58:56;96357.00;;;-0.18;88.29
49451;BME280;35336;48.400;10.886;2023-03-03T00:59:11;96369.31;;;-0.09;88.36
49451;BME280;35336;48.400;10.886;2023-03-03T00:59:27;96371.00;;;-0.08;88.41
49451;BME280;35336;48.400;10.886;2023-03-03T00:59:42;96371.00;;;-0.08;88.05
49451;BME280;35336;48.400;10.886;2023-03-03T00:59:58;96372.91;;;-0.10;88.31
49451;BME280;35336;48.400;10.886;2023-03-03T01:00:13;96377.19;;;-0.09;88.25
49451;BME280;35336;48.400;10.886;2023-03-03T01:00:29;96360.31;;;-0.16;88.44
49451;BME280;35336;48.400;10.886;2023-03-03T01:00:44;96365.03;;;-0.10;88.35
49451;BME280;35336;48.400;10.886;2023-03-03T01:01:00;96370.28;;;-0.10;88.36
49451;BME280;35336;48.400;10.886;2023-03-03T01:01:16;96342.06;;;-0.27;88.30
49451;BME280;35336;48.400;10.886;2023-03-03T01:01:31;96346.34;;;-0.26;88.13
49451;BME280;35336;48.400;10.886;2023-03-03T01:01:47;96369.59;;;-0.12;88.07
49451;BME280;35336;48.400;10.886;2023-03-03T01:02:02;96352.97;;;-0.22;88.05
49451;BME280;35336;48.400;10.886;2023-03-03T01:02:17;96340.78;;;-0.33;88.32
49451;BME280;35336;48.400;10.886;2023-03-03T01:02:33;96362.22;;;-0.18;88.67
49451;BME280;35336;48.400;10.886;2023-03-03T01:02:48;96355.47;;;-0.21;88.51
49451;BME280;35336;48.400;10.886;2023-03-03T01:03:23;96368.75;;;-0.12;88.78
49451;BME280;35336;48.400;10.886;2023-03-03T01:03:39;96367.09;;;-0.13;88.70
49451;BME280;35336;48.400;10.886;2023-03-03T01:03:54;96373.19;;;-0.13;88.80
49451;BME280;35336;48.400;10.886;2023-03-03T01:04:10;96378.28;;;-0.11;88.66
49451;BME280;35336;48.400;10.886;2023-03-03T01:04:25;96354.78;;;-0.23;88.49
49451;BME280;35336;48.400;10.886;2023-03-03T01:04:41;96341.88;;;-0.36;88.01
49451;BME280;35336;48.400;10.886;2023-03-03T01:04:58;96334.97;;;-0.37;88.41
49451;BME280;35336;48.400;10.886;2023-03-03T01:05:15;96349.06;;;-0.28;88.36
49451;BME280;35336;48.400;10.886;2023-03-03T01:05:31;96367.38;;;-0.17;88.50
49451;BME280;35336;48.400;10.886;2023-03-03T01:05:48;96369.41;;;-0.20;88.60
49451;BME280;35336;48.400;10.886;2023-03-03T01:06:03;96371.75;;;-0.17;88.49
49451;BME280;35336;48.400;10.886;2023-03-03T01:06:19;96371.75;;;-0.17;88.68
49451;BME280;35336;48.400;10.886;2023-03-03T01:06:34;96366.50;;;-0.17;88.92
49451;BME280;35336;48.400;10.886;2023-03-03T01:06:49;96371.88;;;-0.19;88.95
49451;BME280;35336;48.400;10.886;2023-03-03T01:07:05;96366.91;;;-0.22;88.96
49451;BME280;35336;48.400;10.886;2023-03-03T01:07:21;96351.00;;;-0.30;89.24
49451;BME280;35336;48.400;10.886;2023-03-03T01:07:36;96342.56;;;-0.34;89.08
49451;BME280;35336;48.400;10.886;2023-03-03T01:07:52;96332.84;;;-0.43;89.09
49451;BME280;35336;48.400;10.886;2023-03-03T01:08:08;96350.03;;;-0.29;89.11
49451;BME280;35336;48.400;10.886;2023-03-03T01:08:23;96370.38;;;-0.21;89.16
49451;BME280;35336;48.400;10.886;2023-03-03T01:08:39;96366.78;;;-0.20;89.13
49451;BME280;35336;48.400;10.886;2023-03-03T01:08:54;96369.41;;;-0.20;88.89
49451;BME280;35336;48.400;10.886;2023-03-03T01:09:09;96360.69;;;-0.21;89.08
49451;BME280;35336;48.400;10.886;2023-03-03T01:09:25;96348.25;;;-0.28;89.12
49451;BME280;35336;48.400;10.886;2023-03-03T01:09:40;96365.94;;;-0.21;89.23
49451;BME280;35336;48.400;10.886;2023-03-03T01:09:55;96368.56;;;-0.21;89.02
49451;BME280;35336;48.400;10.886;2023-03-03T01:10:11;96365.13;;;-0.21;89.15
49451;BME280;35336;48.400;10.886;2023-03-03T01:10:27;96357.78;;;-0.27;89.17
49451;BME280;35336;48.400;10.886;2023-03-03T01:10:52;96366.78;;;-0.20;89.28
49451;BME280;35336;48.400;10.886;2023-03-03T01:11:11;96349.91;;;-0.27;89.36
49451;BME280;35336;48.400;10.886;2023-03-03T01:11:28;96362.22;;;-0.18;89.22
49451;BME280;35336;48.400;10.886;2023-03-03T01:11:43;96349.66;;;-0.24;89.33
49451;BME280;35336;48.400;10.886;2023-03-03T01:11:58;96354.63;;;-0.21;89.19
49451;BME280;35336;48.400;10.886;2023-03-03T01:12:14;96345.78;;;-0.30;89.21
49451;BME280;35336;48.400;10.886;2023-03-03T01:12:30;96354.38;;;-0.18;89.15
49451;BME280;35336;48.400;10.886;2023-03-03T01:12:46;96357.97;;;-0.19;89.08
49451;BME280;35336;48.400;10.886;2023-03-03T01:13:02;96346.34;;;-0.26;89.27
49451;BME280;35336;48.400;10.886;2023-03-03T01:13:20;96349.66;;;-0.24;89.08
49451;BME280;35336;48.400;10.886;2023-03-03T01:13:38;96338.47;;;-0.26;89.38
49451;BME280;35336;48.400;10.886;2023-03-03T01:13:55;96353.16;;;-0.14;89.17
49451;BME280;35336;48.400;10.886;2023-03-03T01:14:10;96344.97;;;-0.21;89.14
49451;BME280;35336;48.400;10.886;2023-03-03T01:14:25;96343.31;;;-0.22;89.00
49451;BME280;35336;48.400;10.886;2023-03-03T01:14:41;96343.31;;;-0.22;88.89
49451;BME280;35336;48.400;10.886;2023-03-03T01:14:56;96354.84;;;-0.13;88.88
49451;BME280;35336;48.400;10.886;2023-03-03T01:15:13;96359.22;;;-0.13;88.86
49451;BME280;35336;48.400;10.886;2023-03-03T01:15:29;96320.91;;;-0.36;88.78
49451;BME280;35336;48.400;10.886;2023-03-03T01:15:44;96355.50;;;-0.11;88.95
49451;BME280;35336;48.400;10.886;2023-03-03T01:16:00;96344.88;;;-0.19;88.97
49451;BME280;35336;48.400;10.886;2023-03-03T01:16:17;96343.63;;;-0.15;88.89
49451;BME280;35336;48.400;10.886;2023-03-03T01:16:33;96338.06;;;-0.22;88.63
49451;BME280;35336;48.400;10.886;2023-03-03T01:16:48;96342.50;;;-0.22;88.47
49451;BME280;35336;48.400;10.886;2023-03-03T01:17:04;96351.13;;;-0.10;88.65
49451;BME280;35336;48.400;10.886;2023-03-03T01:17:19;96345.03;;;-0.11;88.69
49451;BME280;35336;48.400;10.886;2023-03-03T01:17:35;96355.50;;;-0.11;88.68
49451;BME280;35336;48.400;10.886;2023-03-03T01:17:51;96347.34;;;-0.18;88.70
49451;BME280;35336;48.400;10.886;2023-03-03T01:18:06;96336.16;;;-0.20;88.56
49451;BME280;35336;48.400;10.886;2023-03-03T01:18:22;96321.78;;;-0.25;88.64
49451;BME280;35336;48.400;10.886;2023-03-03T01:18:37;96346.84;;;-0.11;88.35
49451;BME280;35336;48.400;10.886;2023-03-03T01:18:52;96337.81;;;-0.19;88.46
49451;BME280;35336;48.400;10.886;2023-03-03T01:19:08;96311.13;;;-0.34;88.40
49451;BME280;35336;48.400;10.886;2023-03-03T01:19:23;96312.34;;;-0.38;88.36
49451;BME280;35336;48.400;10.886;2023-03-03T01:19:39;96350.53;;;-0.14;88.41
49451;BME280;35336;48.400;10.886;2023-03-03T01:19:54;96355.78;;;-0.14;88.33
49451;BME280;35336;48.400;10.886;2023-03-03T01:20:11;96352.47;;;-0.16;88.17
49451;BME280;35336;48.400;10.886;2023-03-03T01:20:27;96354.13;;;-0.15;88.46
49451;BME280;35336;48.400;10.886;2023-03-03T01:20:42;96349.84;;;-0.16;88.42
49451;BME280;35336;48.400;10.886;2023-03-03T01:20:58;96357.69;;;-0.16;88.57
49451;BME280;35336;48.400;10.886;2023-03-03T01:21:13;96348.88;;;-0.15;88.76
49451;BME280;35336;48.400;10.886;2023-03-03T01:21:29;96330.63;;;-0.26;88.94
49451;BME280;35336;48.400;10.886;2023-03-03T01:21:44;96341.41;;;-0.20;88.97
49451;BME280;35336;48.400;10.886;2023-03-03T01:22:00;96335.59;;;-0.23;88.94
49451;BME280;35336;48.400;10.886;2023-03-03T01:22:15;96319.09;;;-0.35;88.64
49451;BME280;35336;48.400;10.886;2023-03-03T01:22:30;96354.84;;;-0.13;88.69
49451;BME280;35336;48.400;10.886;2023-03-03T01:22:46;96315.28;;;-0.31;88.66
49451;BME280;35336;48.400;10.886;2023-03-03T01:23:01;96336.28;;;-0.21;88.76
49451;BME280;35336;48.400;10.886;2023-03-03T01:23:16;96352.22;;;-0.13;88.75
49451;BME280;35336;48.400;10.886;2023-03-03T01:23:32;96323.72;;;-0.27;88.76
49451;BME280;35336;48.400;10.886;2023-03-03T01:23:48;96345.31;;;-0.14;88.79
49451;BME280;35336;48.400;10.886;2023-03-03T01:24:03;96321.78;;;-0.25;88.80
49451;BME280;35336;48.400;10.886;2023-03-03T01:24:19;96308.75;;;-0.37;88.95
49451;BME280;35336;48.400;10.886;2023-03-03T01:24:34;96352.31;;;-0.14;88.95
49451;BME280;35336;48.400;10.886;2023-03-03T01:24:49;96342.69;;;-0.14;88.86
49451;BME280;35336;48.400;10.886;2023-03-03T01:25:05;96329.06;;;-0.29;89.19
49451;BME280;35336;48.400;10.886;2023-03-03T01:25:20;96343.88;;;-0.18;88.86
49451;BME280;35336;48.400;10.886;2023-03-03T01:25:36;96323.97;;;-0.30;88.90
49451;BME280;35336;48.400;10.886;2023-03-03T01:25:51;96326.91;;;-0.24;88.93
49451;BME280;35336;48.400;10.886;2023-03-03T01:26:06;96335.34;;;-0.20;88.87
49451;BME280;35336;48.400;10.886;2023-03-03T01:26:22;96343.50;;;-0.13;88.75
49451;BME280;35336;48.400;10.886;2023-03-03T01:26:37;96333.69;;;-0.21;88.83
49451;BME280;35336;48.400;10.886;2023-03-03T01:26:52;96338.97;;;-0.11;88.86
49451;BME280;35336;48.400;10.886;2023-03-03T01:27:08;96345.03;;;-0.11;89.06
49451;BME280;35336;48.400;10.886;2023-03-03T01:27:23;96344.06;;;-0.10;88.91
49451;BME280;35336;48.400;10.886;2023-03-03T01:27:38;96323.19;;;-0.21;88.65
49451;BME280;35336;48.400;10.886;2023-03-03T01:27:54;96353.88;;;-0.12;88.40
49451;BME280;35336;48.400;10.886;2023-03-03T01:28:09;96347.78;;;-0.12;88.57
49451;BME280;35336;48.400;10.886;2023-03-03T01:28:25;96338.91;;;-0.21;88.36
49451;BME280;35336;48.400;10.886;2023-03-03T01:28:41;96348.06;;;-0.15;88.54
49451;BME280;35336;48.400;10.886;2023-03-03T01:28:56;96329.38;;;-0.22;88.49
49451;BME280;35336;48.400;10.886;2023-03-03T01:29:11;96353.41;;;-0.17;88.43
49451;BME280;35336;48.400;10.886;2023-03-03T01:29:27;96344.72;;;-0.18;88.34
49451;BME280;35336;48.400;10.886;2023-03-03T01:29:42;96349.97;;;-0.18;88.23
49451;BME280;35336;48.400;10.886;2023-03-03T01:29:57;96343.06;;;-0.19;88.31
49451;BME280;35336;48.400;10.886;2023-03-03T01:30:13;96344.97;;;-0.21;88.37
49451;BME280;35336;48.400;10.886;2023-03-03T01:30:29;96351.06;;;-0.20;88.53
49451;BME280;35336;48.400;10.886;2023-03-03T01:30:45;96334.88;;;-0.25;88.21
49451;BME280;35336;48.400;10.886;2023-03-03T01:31:02;96344.97;;;-0.21;88.23
49451;BME280;35336;48.400;10.886;2023-03-03T01:31:18;96351.06;;;-0.20;88.17
49451;BME280;35336;48.400;10.886;2023-03-03T01:31:33;96332.78;;;-0.32;88.54
49451;BME280;35336;48.400;10.886;2023-03-03T01:31:49;96351.06;;;-0.20;88.53
49451;BME280;35336;48.400;10.886;2023-03-03T01:32:04;96315.22;;;-0.41;88.82
49451;BME280;35336;48.400;10.886;2023-03-03T01:32:19;96345.81;;;-0.20;88.74
49451;BME280;35336;48.400;10.886;2023-03-03T01:32:35;96350.09;;;-0.19;88.78
49451;BME280;35336;48.400;10.886;2023-03-03T01:32:50;96342.63;;;-0.24;88.92
49451;BME280;35336;48.400;10.886;2023-03-03T01:33:05;96357.84;;;-0.18;88.80
49451;BME280;35336;48.400;10.886;2023-03-03T01:33:21;96351.75;;;-0.18;88.81
49451;BME280;35336;48.400;10.886;2023-03-03T01:33:36;96329.53;;;-0.24;88.90
49451;BME280;35336;48.400;10.886;2023-03-03T01:33:52;96326.59;;;-0.30;88.95
49451;BME280;35336;48.400;10.886;2023-03-03T01:34:07;96347.22;;;-0.16;88.86
49451;BME280;35336;48.400;10.886;2023-03-03T01:34:23;96348.31;;;-0.19;88.69
49451;BME280;35336;48.400;10.886;2023-03-03T01:34:39;96349.84;;;-0.16;88.82
49451;BME280;35336;48.400;10.886;2023-03-03T01:34:55;96343.31;;;-0.22;88.92
49451;BME280;35336;48.400;10.886;2023-03-03T01:35:10;96337.25;;;-0.22;89.13
49451;BME280;35336;48.400;10.886;2023-03-03T01:35:26;96347.78;;;-0.12;89.01
49451;BME280;35336;48.400;10.886;2023-03-03T01:35:45;96346.41;;;-0.17;88.85
49451;BME280;35336;48.400;10.886;2023-03-03T01:36:02;96354.69;;;-0.11;88.99
49451;BME280;35336;48.400;10.886;2023-03-03T01:36:23;96351.50;;;-0.15;88.85
49451;BME280;35336;48.400;10.886;2023-03-03T01:36:38;96335.19;;;-0.19;88.63
49451;BME280;35336;48.400;10.886;2023-03-03T01:36:54;96332.00;;;-0.22;88.63
49451;BME280;35336;48.400;10.886;2023-03-03T01:37:09;96353.88;;;-0.12;88.49
49451;BME280;35336;48.400;10.886;2023-03-03T01:37:24;96322.28;;;-0.32;88.49
49451;BME280;35336;48.400;10.886;2023-03-03T01:37:40;96346.69;;;-0.10;88.55
49451;BME280;35336;48.400;10.886;2023-03-03T01:37:55;96349.31;;;-0.10;88.49
49451;BME280;35336;48.400;10.886;2023-03-03T01:38:10;96353.88;;;-0.12;88.40
49451;BME280;35336;48.400;10.886;2023-03-03T01:38:26;96329.53;;;-0.24;88.66
49451;BME280;35336;48.400;10.886;2023-03-03T01:38:42;96350.53;;;-0.14;88.73
49451;BME280;35336;48.400;10.886;2023-03-03T01:38:57;96337.25;;;-0.22;88.92